Time;durP1;ratioP1;P1;durP2;ratioP2;P2;SDS_P1;SDS_P2;PMS_P1;PMS_P2;Temp;Humidity;BMP_temperature;BMP_pressure;BME280_temperature;BME280_humidity;BME280_pressure;Samples;Min_cycle;Max_cycle;Signal;HPM_P1;HPM_P2
2023/01/02 00:00:59;;;;;;;14.77;3.85;;;;;;;15.71;75.64;100693.28;4983285;28;20051;-60
2023/01/02 00:03:26;;;;;;;10.32;3.55;;;;;;;15.85;76.28;100700.47;4972052;28;20055;-64
2023/01/02 00:05:54;;;;;;;12.88;3.53;;;;;;;15.59;75.91;100698.03;4968989;28;20051;-61
2023/01/02 00:08:21;;;;;;;13.35;3.83;;;;;;;15.59;77.11;100721.06;4979653;28;20055;-58
2023/01/02 00:10:49;;;;;;;9.07;3.60;;;;;;;15.68;76.04;100715.38;4982403;28;20058;-60
2023/01/02 00:13:19;;;;;;;;;;;;;;;15.72;75.41;100711.59;4984899;28;20188;-60
2023/01/02 00:15:46;;;;;;;12.30;3.35;;;;;;;15.61;77.34;100726.25;4996283;28;20001;-59
2023/01/02 00:18:14;;;;;;;13.57;3.90;;;;;;;15.57;77.70;100733.66;4967731;28;20051;-59
2023/01/02 00:20:41;;;;;;;13.82;3.80;;;;;;;15.43;77.69;100731.22;4965703;28;20050;-59
2023/01/02 00:23:08;;;;;;;12.27;3.45;;;;;;;15.42;78.12;100735.16;4965713;28;20490;-60
2023/01/02 00:25:36;;;;;;;9.48;2.90;;;;;;;15.42;78.45;100739.91;4994260;28;20066;-62
2023/01/02 00:28:03;;;;;;;10.63;3.17;;;;;;;15.37;78.49;100738.13;4965750;28;20051;-61
2023/01/02 00:30:31;;;;;;;10.68;2.65;;;;;;;15.53;79.10;100733.53;4973154;28;20057;-61
2023/01/02 00:33:05;;;;;;;12.05;2.75;;;;;;;15.45;77.77;100742.78;4983655;28;20133;-60
2023/01/02 00:35:32;;;;;;;12.93;3.47;;;;;;;15.39;80.40;100735.84;4977620;28;20521;-62
2023/01/02 00:38:00;;;;;;;9.85;3.00;;;;;;;15.28;80.15;100725.50;4996449;28;20069;-61
2023/01/02 00:40:27;;;;;;;11.40;3.42;;;;;;;15.45;80.26;100740.00;4983826;28;20047;-60
2023/01/02 00:42:54;;;;;;;13.10;3.72;;;;;;;15.67;79.21;100738.78;4996374;28;20457;-60
2023/01/02 00:45:22;;;;;;;8.40;3.15;;;;;;;15.26;81.86;100736.94;4972961;28;20059;-59
2023/01/02 00:47:50;;;;;;;9.88;3.00;;;;;;;15.10;81.55;100738.75;4996244;28;20528;-62
2023/01/02 00:50:17;;;;;;;15.20;3.25;;;;;;;14.99;83.13;100725.69;4960005;28;20074;-60
2023/01/02 00:52:45;;;;;;;11.90;3.33;;;;;;;15.02;82.95;100730.53;4996230;28;20054;-60
2023/01/02 00:55:12;;;;;;;13.52;3.13;;;;;;;15.06;82.95;100740.63;4958627;28;20055;-59
2023/01/02 00:57:39;;;;;;;9.32;2.85;;;;;;;15.02;83.85;100730.53;4996210;28;20054;-62
2023/01/02 01:00:07;;;;;;;8.30;2.85;;;;;;;15.00;84.43;100736.44;4978378;28;20050;-60
2023/01/02 01:02:34;;;;;;;10.55;3.40;;;;;;;14.85;85.26;100739.84;4996288;28;20494;-60
2023/01/02 01:05:01;;;;;;;11.98;3.03;;;;;;;14.89;85.54;100739.97;4978587;28;20058;-62
2023/01/02 01:07:29;;;;;;;13.32;2.90;;;;;;;14.97;84.69;100739.06;4994522;28;20061;-60
2023/01/02 01:09:57;;;;;;;11.85;4.60;;;;;;;14.93;84.70;100741.72;4980398;28;20066;-60
2023/01/02 01:12:24;;;;;;;13.05;3.78;;;;;;;14.91;85.81;100740.44;4997576;28;20054;-61
2023/01/02 01:14:52;;;;;;;13.63;4.70;;;;;;;14.79;85.03;100735.66;4996964;28;20051;-58
2023/01/02 01:17:19;;;;;;;10.55;3.97;;;;;;;14.88;86.39;100741.94;4984641;28;20491;-60
2023/01/02 01:19:47;;;;;;;20.00;7.57;;;;;;;14.95;86.76;100739.41;4943160;29;20058;-62
2023/01/02 01:22:14;;;;;;;18.05;7.97;;;;;;;14.85;86.61;100739.84;4982256;28;20043;-59
2023/01/02 01:24:41;;;;;;;9.52;3.05;;;;;;;14.70;86.97;100743.25;4971878;28;20070;-60
2023/01/02 01:27:09;;;;;;;10.95;3.03;;;;;;;14.83;87.72;100753.25;4985711;28;20058;-59
2023/01/02 01:29:36;;;;;;;11.27;3.40;;;;;;;14.99;87.43;100754.22;4960453;28;20054;-62
2023/01/02 01:32:04;;;;;;;10.18;3.15;;;;;;;15.09;85.67;100752.97;4982408;28;20040;-61
2023/01/02 01:34:31;;;;;;;11.20;3.90;;;;;;;14.91;86.07;100755.13;4959341;28;20058;-60
2023/01/02 01:36:58;;;;;;;12.13;3.10;;;;;;;14.74;86.55;100746.16;4983446;28;20062;-60
2023/01/02 01:39:25;;;;;;;9.63;3.40;;;;;;;14.65;87.88;100737.91;4977368;28;20055;-60
2023/01/02 01:41:53;;;;;;;13.52;3.78;;;;;;;14.70;88.36;100740.47;4992857;28;20049;-61
2023/01/02 01:44:45;;;;;;;11.05;3.85;;;;;;;14.77;88.15;100745.50;4999266;28;20057;-57
2023/01/02 01:47:39;;;;;;;11.45;2.85;;;;;;;14.56;88.02;100734.41;5003712;28;20078;-59
2023/01/02 01:50:32;;;;;;;8.95;2.80;;;;;;;14.54;89.30;100745.00;4974708;28;20078;-61
2023/01/02 01:53:03;;;;;;;8.38;2.83;;;;;;;14.53;88.89;100751.72;4985384;28;20050;-60
2023/01/02 01:55:37;;;;;;;9.57;3.15;;;;;;;14.51;89.96;100770.63;4980539;28;20046;-59
2023/01/02 01:58:08;;;;;;;14.43;2.53;;;;;;;14.58;90.29;100768.13;4990445;28;20062;-59
2023/01/02 02:00:35;;;;;;;8.18;2.47;;;;;;;14.52;89.68;100778.63;4978869;28;20050;-60
2023/01/02 02:03:06;;;;;;;13.50;3.10;;;;;;;14.60;90.36;100779.69;4987221;28;20047;-59
2023/01/02 02:05:33;;;;;;;9.48;3.35;;;;;;;14.60;89.68;100799.09;5012556;28;20050;-63
2023/01/02 02:08:13;;;;;;;10.25;2.30;;;;;;;14.68;88.61;100805.75;4976404;28;20066;-62
2023/01/02 02:10:40;;;;;;;10.52;2.80;;;;;;;14.47;88.99;100803.75;4994530;28;20057;-60
2023/01/02 02:13:10;;;;;;;11.40;2.78;;;;;;;14.50;89.27;100805.06;4985309;28;20450;-61
2023/01/02 02:15:49;;;;;;;9.40;2.42;;;;;;;14.52;89.15;100814.66;4982179;28;20065;-61
2023/01/02 02:18:48;;;;;;;7.72;2.38;;;;;;;14.68;88.40;100821.22;4970209;28;20063;-60
2023/01/02 02:21:27;;;;;;;9.07;2.70;;;;;;;14.36;90.44;100823.91;4976219;28;20498;-61
2023/01/02 02:24:29;;;;;;;13.65;2.65;;;;;;;14.43;89.63;100838.03;4998401;28;20072;-60
2023/01/02 02:27:27;;;;;;;11.38;2.42;;;;;;;14.35;89.83;100830.59;5000307;28;20054;-61
2023/01/02 02:30:21;;;;;;;9.50;2.38;;;;;;;14.52;90.24;100824.94;4969054;28;20064;-60
2023/01/02 02:33:24;;;;;;;9.93;2.47;;;;;;;14.38;90.09;100821.63;4960672;28;20051;-59
2023/01/02 02:36:10;;;;;;;9.25;2.30;;;;;;;14.35;90.91;100833.34;4982643;28;20058;-59
2023/01/02 02:38:53;;;;;;;9.57;2.13;;;;;;;14.28;90.85;100824.75;4959316;28;20051;-61
2023/01/02 02:41:34;;;;;;;10.77;2.50;;;;;;;14.23;92.85;100836.00;4992849;28;20050;-59
2023/01/02 02:44:01;;;;;;;;;;;;;;;14.22;92.22;100820.53;4981072;28;20050;-60
2023/01/02 02:46:34;;;;;;;8.82;2.42;;;;;;;14.30;93.14;100831.59;5003258;28;19922;-62
2023/01/02 02:49:09;;;;;;;8.40;2.22;;;;;;;14.32;92.96;100825.72;4971023;28;20078;-60
2023/01/02 02:51:50;;;;;;;7.87;2.10;;;;;;;14.28;93.52;100822.81;4990158;28;20050;-62
2023/01/02 02:54:21;;;;;;;12.55;2.30;;;;;;;14.18;94.29;100827.88;4941791;29;20059;-62
2023/01/02 02:56:49;;;;;;;9.48;2.08;;;;;;;14.11;94.30;100822.06;4984768;28;20057;-60
2023/01/02 02:59:18;;;;;;;10.30;2.72;;;;;;;14.28;93.91;100819.22;5005491;28;20047;-61
2023/01/02 03:01:46;;;;;;;5.78;2.50;;;;;;;14.18;94.22;100827.88;4984831;28;20417;-60
2023/01/02 03:04:18;;;;;;;6.35;2.03;;;;;;;14.20;95.25;100828.38;4977633;28;20058;-59
2023/01/02 03:07:06;;;;;;;7.00;1.70;;;;;;;14.03;95.79;100836.78;4969286;28;20071;-62
2023/01/02 03:09:37;;;;;;;7.63;1.88;;;;;;;14.04;96.36;100838.38;4947350;29;20063;-62
2023/01/02 03:12:26;;;;;;;8.10;1.80;;;;;;;13.98;93.95;100837.75;4966467;28;20055;-59
2023/01/02 03:15:23;;;;;;;7.60;1.60;;;;;;;13.89;96.04;100834.25;4971646;28;20512;-60
2023/01/02 03:18:24;;;;;;;5.80;1.55;;;;;;;14.05;94.84;100829.75;4959417;28;20066;-60
2023/01/02 03:21:01;;;;;;;5.20;1.20;;;;;;;13.98;94.19;100834.19;4983184;28;20045;-61
2023/01/02 03:23:30;;;;;;;4.80;1.10;;;;;;;13.90;92.83;100830.31;5011746;28;20516;-61
2023/01/02 03:25:58;;;;;;;6.50;1.08;;;;;;;14.08;93.24;100826.31;4992122;28;20046;-59
2023/01/02 03:28:25;;;;;;;6.45;1.20;;;;;;;14.19;90.71;100832.28;4992782;28;20051;-58
2023/01/02 03:30:56;;;;;;;4.72;1.13;;;;;;;14.01;91.60;100827.97;4983178;28;20065;-59
2023/01/02 03:33:24;;;;;;;;;;;;;;;13.76;92.58;100835.25;4963886;28;20055;-61
2023/01/02 03:36:16;;;;;;;1.70;0.77;;;;;;;13.69;91.75;100832.19;4981721;28;19929;-61
2023/01/02 03:38:47;;;;;;;5.50;0.93;;;;;;;13.74;91.51;100839.53;4995736;28;20050;-61
2023/01/02 03:41:21;;;;;;;1.65;0.60;;;;;;;13.84;90.56;100850.22;4977638;28;20054;-61
2023/01/02 03:43:50;;;;;;;2.95;0.63;;;;;;;13.62;89.90;100854.03;4979756;28;20093;-60
2023/01/02 03:46:37;;;;;;;6.43;1.10;;;;;;;13.68;91.72;100862.97;4996310;28;20065;-59
2023/01/02 03:49:13;;;;;;;1.13;0.40;;;;;;;13.60;90.02;100883.19;4997379;28;20057;-60
2023/01/02 03:51:40;;;;;;;1.25;0.50;;;;;;;13.77;90.18;100874.84;4996883;28;20050;-61
2023/01/02 03:54:08;;;;;;;2.05;0.50;;;;;;;13.70;89.29;100877.31;4993453;28;20057;-60
2023/01/02 03:56:56;;;;;;;2.28;0.65;;;;;;;13.61;90.81;100879.28;4982766;28;20059;-58
2023/01/02 03:59:37;;;;;;;4.05;0.60;;;;;;;13.70;91.92;100888.38;4977246;28;20047;-58
2023/01/02 04:02:17;;;;;;;3.40;0.60;;;;;;;13.62;90.91;100880.88;4991974;28;20046;-59
2023/01/02 04:04:55;;;;;;;3.17;0.77;;;;;;;13.59;91.24;100890.69;4996546;28;20046;-61
2023/01/02 04:07:35;;;;;;;1.50;0.40;;;;;;;13.63;91.07;100894.44;5010701;28;20050;-61
2023/01/02 04:10:04;;;;;;;1.48;0.45;;;;;;;13.56;90.29;100894.91;4979077;28;20050;-60
2023/01/02 04:12:35;;;;;;;3.80;0.68;;;;;;;13.52;90.09;100884.84;4993116;28;20047;-61
2023/01/02 04:15:08;;;;;;;2.55;0.50;;;;;;;13.57;89.96;100888.25;4960029;28;20085;-60
2023/01/02 04:17:54;;;;;;;2.17;0.60;;;;;;;13.52;91.66;100891.19;4996009;28;20050;-60
2023/01/02 04:20:27;;;;;;;2.00;0.90;;;;;;;13.64;93.00;100887.72;4995760;28;20054;-60
2023/01/02 04:23:02;;;;;;;3.95;0.40;;;;;;;13.50;91.15;100890.69;4989837;28;20057;-60
2023/01/02 04:25:37;;;;;;;2.17;0.43;;;;;;;13.45;93.10;100898.34;4991832;28;20066;-61
2023/01/02 04:28:25;;;;;;;1.98;0.60;;;;;;;13.30;91.98;100896.91;4967541;28;20055;-60
2023/01/02 04:31:24;;;;;;;2.17;0.57;;;;;;;13.30;93.65;100907.97;4981295;28;20050;-61
2023/01/02 04:33:56;;;;;;;2.40;0.70;;;;;;;13.14;93.22;100906.88;4963484;28;20063;-61
2023/01/02 04:36:23;;;;;;;0.98;0.30;;;;;;;13.16;92.93;100912.06;4976246;28;20061;-59
2023/01/02 04:38:51;;;;;;;2.72;0.70;;;;;;;13.50;93.48;100909.25;4994725;28;20065;-61
2023/01/02 04:41:27;;;;;;;2.00;0.75;;;;;;;13.37;92.92;100913.81;4995848;28;20047;-60
2023/01/02 04:43:55;;;;;;;1.98;0.50;;;;;;;13.21;93.01;100922.97;4989734;28;20038;-60
2023/01/02 04:46:24;;;;;;;3.60;0.60;;;;;;;13.29;93.63;100933.19;4990421;28;20061;-59
2023/01/02 04:48:53;;;;;;;1.25;0.47;;;;;;;13.09;93.50;100937.41;5000094;28;20074;-61
2023/01/02 04:51:21;;;;;;;3.78;0.60;;;;;;;13.12;93.66;100942.31;4999433;28;20050;-60
2023/01/02 04:53:49;;;;;;;2.97;0.90;;;;;;;13.12;94.53;100938.72;5014822;28;20059;-60
2023/01/02 04:56:16;;;;;;;0.90;0.43;;;;;;;13.24;95.41;100947.19;4999589;28;20047;-62
2023/01/02 04:58:45;;;;;;;2.13;0.50;;;;;;;13.25;94.94;100948.84;5000015;28;20077;-60
2023/01/02 05:01:15;;;;;;;2.60;0.45;;;;;;;13.18;93.73;100946.53;4999882;28;20043;-60
2023/01/02 05:03:45;;;;;;;2.10;0.60;;;;;;;13.23;94.64;100948.34;4964428;28;20051;-60
2023/01/02 05:06:13;;;;;;;3.25;0.60;;;;;;;13.26;93.81;100961.53;4982318;28;20058;-60
2023/01/02 05:08:40;;;;;;;2.90;0.50;;;;;;;13.19;94.95;100959.25;4979139;28;20062;-59
2023/01/02 05:11:19;;;;;;;2.88;0.60;;;;;;;13.26;94.09;100970.63;4984126;28;20050;-60
2023/01/02 05:13:46;;;;;;;1.38;0.70;;;;;;;13.30;94.13;100970.81;4969109;28;20478;-61
2023/01/02 05:16:13;;;;;;;1.38;0.52;;;;;;;13.14;94.72;100975.19;5001681;28;20080;-60
2023/01/02 05:18:41;;;;;;;4.57;0.70;;;;;;;13.24;94.22;100988.69;4977727;28;20066;-60
2023/01/02 05:23:57;;;;;;;3.45;0.60;;;;;;;13.14;94.21;100992.59;4973834;28;20487;-61
2023/01/02 05:26:25;;;;;;;1.88;0.63;;;;;;;13.14;94.09;100992.59;4965946;28;20171;-61
2023/01/02 05:28:53;;;;;;;0.50;0.40;;;;;;;13.10;94.64;100999.09;4970456;28;20051;-60
2023/01/02 05:31:21;;;;;;;4.28;0.45;;;;;;;13.30;94.38;101006.78;4991469;28;20152;-59
2023/01/02 05:33:52;;;;;;;2.50;0.52;;;;;;;12.99;94.45;101023.44;4979559;28;20051;-60
2023/01/02 05:36:21;;;;;;;1.25;0.40;;;;;;;12.96;95.05;101021.31;4987771;28;20491;-60
2023/01/02 05:38:48;;;;;;;1.70;0.55;;;;;;;13.07;95.50;101027.38;4998998;28;20050;-59
2023/01/02 05:41:16;;;;;;;3.17;0.73;;;;;;;13.07;94.98;101036.50;4980487;28;20051;-60
2023/01/02 05:43:43;;;;;;;2.65;0.45;;;;;;;13.15;95.46;101034.88;4946155;28;20558;-59
2023/01/02 05:46:15;;;;;;;1.45;0.40;;;;;;;13.40;93.26;101037.69;4987393;28;20051;-59
2023/01/02 05:48:43;;;;;;;1.50;0.43;;;;;;;13.10;93.76;101046.94;4980951;28;20051;-59
2023/01/02 05:51:13;;;;;;;4.50;0.75;;;;;;;13.02;94.25;101044.13;4987785;28;20038;-61
2023/01/02 05:53:40;;;;;;;2.28;0.63;;;;;;;13.01;94.89;101046.06;4998951;28;20050;-58
2023/01/02 05:56:13;;;;;;;1.35;0.50;;;;;;;13.11;94.93;101053.28;4978271;28;20050;-61
2023/01/02 05:58:42;;;;;;;1.50;0.50;;;;;;;13.05;94.99;101047.06;4970674;28;20525;-60
2023/01/02 06:01:12;;;;;;;2.67;0.80;;;;;;;13.13;95.21;101046.28;5000512;28;20058;-60
2023/01/02 06:03:40;;;;;;;1.58;0.50;;;;;;;13.04;94.83;101044.63;4993557;28;20051;-59
2023/01/02 06:06:09;;;;;;;5.93;0.55;;;;;;;13.08;94.60;101051.13;4989363;28;20053;-59
2023/01/02 06:08:37;;;;;;;1.25;0.47;;;;;;;13.18;94.24;101054.41;4966486;28;20058;-60
2023/01/02 06:11:05;;;;;;;1.00;0.40;;;;;;;13.19;94.09;101058.00;4972543;28;20054;-59
2023/01/02 06:13:34;;;;;;;4.15;0.60;;;;;;;13.13;93.84;101053.75;4993596;28;20498;-60
2023/01/02 06:16:03;;;;;;;1.67;0.50;;;;;;;13.29;94.54;101058.50;4973392;28;20057;-59
2023/01/02 06:18:32;;;;;;;1.92;0.70;;;;;;;13.24;94.33;101058.66;4993667;28;20297;-60
2023/01/02 06:21:04;;;;;;;1.40;0.70;;;;;;;13.24;94.03;101068.91;4971713;28;20042;-60
2023/01/02 06:23:31;;;;;;;3.42;1.10;;;;;;;13.08;94.33;101074.09;4994795;28;20055;-59
2023/01/02 06:26:04;;;;;;;3.85;1.55;;;;;;;13.11;93.40;101075.41;5002484;28;20053;-60
2023/01/02 06:28:32;;;;;;;4.38;1.13;;;;;;;13.07;93.85;101074.41;4993760;28;20058;-60
2023/01/02 06:31:05;;;;;;;4.30;0.60;;;;;;;13.05;93.89;101077.50;4948724;28;20051;-60
2023/01/02 06:33:33;;;;;;;1.63;0.52;;;;;;;13.17;93.79;101077.69;4979553;28;20050;-61
2023/01/02 06:36:11;;;;;;;1.58;0.50;;;;;;;13.19;93.00;101094.78;4988304;28;20509;-62
2023/01/02 06:38:39;;;;;;;4.18;0.60;;;;;;;13.01;92.94;101090.28;4994630;28;21803;-61
2023/01/02 06:41:07;;;;;;;2.03;0.70;;;;;;;13.03;93.48;101090.81;4997131;28;20050;-59
2023/01/02 06:43:37;;;;;;;3.00;0.65;;;;;;;13.03;93.64;101099.13;4995927;28;20046;-58
2023/01/02 06:46:05;;;;;;;2.90;0.65;;;;;;;13.08;93.34;101084.31;4959536;28;20054;-61
2023/01/02 06:48:33;;;;;;;1.38;0.45;;;;;;;12.89;93.67;101094.81;4978694;28;20057;-56
2023/01/02 06:51:05;;;;;;;2.03;0.50;;;;;;;13.20;93.01;101095.56;4983556;28;20397;-60
2023/01/02 06:53:34;;;;;;;2.92;0.50;;;;;;;12.95;92.84;101096.31;4977248;28;20074;-59
2023/01/02 06:56:02;;;;;;;2.08;0.50;;;;;;;12.92;93.17;101094.97;4983752;28;20050;-58
2023/01/02 06:58:31;;;;;;;2.35;0.80;;;;;;;12.91;93.01;101085.06;4996141;28;20050;-59
2023/01/02 07:01:07;;;;;;;2.23;0.80;;;;;;;13.01;93.48;101087.53;4997316;28;20054;-57
2023/01/02 07:03:34;;;;;;;1.40;0.57;;;;;;;12.95;92.45;101083.28;4993386;28;20058;-59
2023/01/02 07:06:06;;;;;;;0.93;0.47;;;;;;;13.00;91.93;101083.16;4984174;28;20058;-58
2023/01/02 07:08:33;;;;;;;2.70;0.70;;;;;;;12.80;93.13;101091.19;4996992;28;20054;-60
2023/01/02 07:11:10;;;;;;;1.33;0.50;;;;;;;12.76;93.36;101096.53;4997263;28;20054;-60
2023/01/02 07:13:38;;;;;;;1.92;0.60;;;;;;;12.79;93.43;101100.63;4997552;28;20046;-60
2023/01/02 07:16:08;;;;;;;3.63;0.50;;;;;;;12.71;92.89;101104.97;5000621;28;20053;-56
2023/01/02 07:18:36;;;;;;;1.85;0.57;;;;;;;12.91;91.98;101115.47;4979249;28;20054;-58
2023/01/02 07:21:04;;;;;;;2.47;0.95;;;;;;;12.89;92.24;101119.69;4980489;28;20042;-63
2023/01/02 07:23:31;;;;;;;3.53;1.20;;;;;;;12.91;91.56;101120.19;4977821;28;20051;-61
2023/01/02 07:26:00;;;;;;;6.85;1.58;;;;;;;12.90;91.14;101121.34;4993597;28;20058;-63
2023/01/02 07:28:29;;;;;;;2.30;0.60;;;;;;;12.78;90.64;101121.91;4978396;28;20062;-58
2023/01/02 07:30:58;;;;;;;1.90;0.70;;;;;;;12.58;91.87;101116.13;4982852;28;20046;-59
2023/01/02 07:33:27;;;;;;;1.55;0.75;;;;;;;12.63;92.70;101125.09;4996116;28;20050;-61
2023/01/02 07:36:02;;;;;;;2.27;0.67;;;;;;;12.59;92.67;101121.31;4991211;28;20050;-59
2023/01/02 07:38:29;;;;;;;3.63;0.80;;;;;;;12.79;92.00;101125.50;4985280;28;20410;-60
2023/01/02 07:40:57;;;;;;;3.25;0.80;;;;;;;12.74;91.85;101126.47;4982142;28;20514;-59
2023/01/02 07:43:24;;;;;;;1.67;0.70;;;;;;;12.70;92.27;101131.00;4981111;28;20054;-60
2023/01/02 07:45:52;;;;;;;2.83;0.80;;;;;;;12.82;91.45;101133.97;4969837;28;20046;-60
2023/01/02 07:48:19;;;;;;;1.52;0.50;;;;;;;12.78;91.73;101144.03;4986376;28;20054;-60
2023/01/02 07:50:46;;;;;;;3.25;0.80;;;;;;;12.71;91.69;101151.16;4969443;28;20042;-60
2023/01/02 07:53:14;;;;;;;4.88;0.95;;;;;;;12.71;93.82;101164.97;4975940;28;20502;-62
2023/01/02 07:55:41;;;;;;;10.15;1.00;;;;;;;13.14;95.76;101163.25;4976660;28;20062;-66
2023/01/02 07:58:09;;;;;;;4.72;1.30;;;;;;;13.79;96.41;101171.56;4975708;28;20514;-66
2023/01/02 08:00:36;;;;;;;1.08;0.52;;;;;;;14.16;91.37;101171.75;4975516;28;20042;-68
2023/01/02 08:03:04;;;;;;;1.70;0.52;;;;;;;14.38;90.35;101179.13;4972767;28;20057;-67
2023/01/02 08:05:33;;;;;;;2.50;0.60;;;;;;;14.73;87.55;101177.94;4960168;28;20046;-68
2023/01/02 08:08:00;;;;;;;2.03;0.63;;;;;;;14.92;84.70;101188.63;4972737;28;20047;-67
2023/01/02 08:10:27;;;;;;;1.73;0.50;;;;;;;14.89;84.45;101200.41;4975856;28;20050;-68
2023/01/02 08:12:56;;;;;;;6.32;1.10;;;;;;;15.14;83.54;101200.31;4984798;28;20572;-67
2023/01/02 08:15:24;;;;;;;4.30;1.10;;;;;;;14.93;82.30;101204.13;4973440;28;20046;-66
2023/01/02 08:17:51;;;;;;;4.65;0.98;;;;;;;14.98;82.97;101199.22;4990858;28;20058;-68
2023/01/02 08:20:19;;;;;;;2.28;0.73;;;;;;;14.99;82.88;101203.63;4988309;28;20705;-68
2023/01/02 08:22:46;;;;;;;4.40;0.80;;;;;;;15.04;81.47;101214.53;4974905;28;20050;-67
2023/01/02 08:25:15;;;;;;;3.80;1.10;;;;;;;15.06;80.61;101214.22;4957131;28;20055;-67
2023/01/02 08:27:43;;;;;;;7.80;0.98;;;;;;;15.05;80.43;101223.66;4975450;28;20053;-69
2023/01/02 08:30:11;;;;;;;3.47;0.77;;;;;;;15.08;80.49;101232.13;4974752;28;20047;-68
2023/01/02 08:32:38;;;;;;;3.25;0.95;;;;;;;15.09;79.45;101227.41;4991435;28;20054;-69
2023/01/02 08:35:06;;;;;;;3.38;1.05;;;;;;;15.02;79.15;101219.59;4977908;28;20046;-67
2023/01/02 08:37:34;;;;;;;5.32;1.20;;;;;;;15.01;79.03;101236.59;5001164;28;20047;-68
2023/01/02 08:40:01;;;;;;;3.08;0.90;;;;;;;14.94;78.92;101233.50;4955202;28;20046;-67
2023/01/02 08:42:30;;;;;;;2.50;1.00;;;;;;;14.91;78.19;101243.28;4999722;28;20067;-68
2023/01/02 08:44:58;;;;;;;3.03;0.70;;;;;;;15.07;77.98;101243.56;4985063;28;20039;-68
2023/01/02 08:47:25;;;;;;;3.30;1.00;;;;;;;15.08;77.49;101256.31;4976059;28;20054;-69
2023/01/02 08:49:53;;;;;;;4.03;0.90;;;;;;;14.92;77.21;101269.91;4975413;28;20061;-68
2023/01/02 08:52:20;;;;;;;3.55;1.35;;;;;;;15.03;78.31;101285.03;4978985;28;20446;-67
2023/01/02 08:54:47;;;;;;;6.32;3.17;;;;;;;15.12;77.14;101290.56;4974985;28;20038;-66
2023/01/02 08:57:15;;;;;;;1.90;0.80;;;;;;;14.73;76.74;101310.22;4959063;28;20067;-68
2023/01/02 08:59:42;;;;;;;6.57;1.75;;;;;;;14.86;77.65;101321.13;4974885;28;20501;-69
2023/01/02 09:02:13;;;;;;;4.57;2.42;;;;;;;14.94;77.98;101327.81;4975318;28;20115;-66
2023/01/02 09:04:41;;;;;;;3.30;1.35;;;;;;;14.65;78.88;101334.00;4971685;28;20051;-67
2023/01/02 09:07:08;;;;;;;4.82;2.08;;;;;;;14.84;79.32;101350.31;4959054;28;20062;-68
2023/01/02 09:09:36;;;;;;;2.85;1.02;;;;;;;14.93;79.51;101348.38;4977832;28;20077;-68
2023/01/02 09:12:03;;;;;;;2.92;0.93;;;;;;;14.83;79.04;101338.44;4976545;28;20047;-67
2023/01/02 09:14:31;;;;;;;3.13;0.80;;;;;;;14.73;79.42;101338.75;4989779;28;20055;-67
2023/01/02 09:16:58;;;;;;;2.30;0.80;;;;;;;14.91;79.43;101339.53;4975138;28;20054;-67
2023/01/02 09:19:26;;;;;;;3.78;0.88;;;;;;;14.80;78.81;101321.63;4956664;28;20801;-67
2023/01/02 09:21:53;;;;;;;3.05;1.15;;;;;;;14.80;78.78;101319.69;4975843;28;20047;-67
2023/01/02 09:24:20;;;;;;;4.88;2.00;;;;;;;14.98;78.38;101307.41;4988082;28;20046;-68
2023/01/02 09:26:48;;;;;;;3.92;1.30;;;;;;;14.80;78.94;101329.94;4972085;28;20043;-67
2023/01/02 09:29:15;;;;;;;7.05;3.15;;;;;;;14.90;77.71;101340.69;4967431;28;20054;-66
2023/01/02 09:31:42;;;;;;;5.53;2.00;;;;;;;14.63;78.89;101350.97;4992938;28;20058;-66
2023/01/02 09:34:10;;;;;;;11.15;7.13;;;;;;;14.89;79.27;101362.06;4975021;28;20051;-68
2023/01/02 09:36:38;;;;;;;10.70;5.85;;;;;;;15.01;77.69;101366.97;4971102;28;20054;-68
2023/01/02 09:39:07;;;;;;;6.45;3.45;;;;;;;14.98;77.49;101362.06;4970126;28;20055;-68
2023/01/02 09:41:37;;;;;;;8.50;4.32;;;;;;;14.88;76.46;101360.44;4985463;28;20055;-68
2023/01/02 09:44:34;;;;;;;2.53;1.13;;;;;;;15.00;77.11;101366.16;4970346;28;20050;-67
2023/01/02 09:47:11;;;;;;;4.65;1.75;;;;;;;15.05;77.27;101374.31;4974014;28;20054;-68
2023/01/02 09:49:48;;;;;;;5.18;1.30;;;;;;;15.17;77.21;101381.97;4982819;28;20101;-68
2023/01/02 09:52:29;;;;;;;3.75;1.80;;;;;;;15.16;76.84;101383.13;4975709;28;20055;-67
2023/01/02 09:54:56;;;;;;;4.80;1.90;;;;;;;15.09;76.30;101408.59;4989193;28;20047;-68
2023/01/02 09:57:25;;;;;;;3.85;1.98;;;;;;;15.13;76.77;101417.88;4979684;28;20607;-66
2023/01/02 10:00:02;;;;;;;12.60;6.70;;;;;;;15.20;76.39;101417.41;4992621;28;20620;-68
2023/01/02 10:03:12;;;;;;;6.88;3.70;;;;;;;14.98;76.50;101428.66;4982230;28;20059;-68
2023/01/02 10:05:58;;;;;;;8.30;4.40;;;;;;;15.21;76.64;101422.63;4966500;28;20070;-68
2023/01/02 10:08:52;;;;;;;3.85;1.58;;;;;;;15.08;76.53;101420.03;4977163;28;20051;-67
2023/01/02 10:11:40;;;;;;;4.40;2.33;;;;;;;14.86;77.09;101426.53;4977126;28;20070;-67
2023/01/02 10:14:30;;;;;;;7.25;4.40;;;;;;;14.89;77.33;101417.53;4976964;28;20553;-69
2023/01/02 10:17:11;;;;;;;4.53;1.60;;;;;;;14.99;76.78;101414.47;4987302;28;20067;-68
2023/01/02 10:19:57;;;;;;;3.40;1.33;;;;;;;15.03;76.72;101414.63;4977116;28;20086;-67
2023/01/02 10:22:31;;;;;;;4.93;1.73;;;;;;;15.00;76.18;101399.44;4972898;28;20718;-69
2023/01/02 10:25:14;;;;;;;4.18;1.40;;;;;;;15.10;75.59;101384.44;4954270;28;20062;-68
2023/01/02 10:27:46;;;;;;;3.75;1.50;;;;;;;15.03;76.15;101393.22;4975687;28;20070;-66
2023/01/02 10:30:24;;;;;;;5.80;2.30;;;;;;;15.11;75.75;101386.88;4969495;28;20050;-69
2023/01/02 10:33:01;;;;;;;4.70;1.80;;;;;;;15.22;75.71;101395.69;4977118;28;20055;-67
2023/01/02 10:35:52;;;;;;;6.40;1.83;;;;;;;15.34;75.20;101416.06;4978243;28;20054;-68
2023/01/02 10:38:20;;;;;;;3.53;1.40;;;;;;;14.98;76.00;101423.09;4991557;28;20070;-68
2023/01/02 10:40:49;;;;;;;4.70;1.50;;;;;;;14.76;75.18;101417.69;4978497;28;20050;-67
2023/01/02 10:43:17;;;;;;;9.10;5.70;;;;;;;15.08;75.95;101420.81;4984632;28;20054;-66
2023/01/02 10:45:44;;;;;;;6.88;2.40;;;;;;;15.18;75.34;101426.06;4960521;28;20134;-67
2023/01/02 10:48:12;;;;;;;11.70;6.15;;;;;;;14.97;74.82;101440.91;4978126;28;20047;-67
2023/01/02 10:50:43;;;;;;;3.30;1.60;;;;;;;14.53;75.70;101450.28;4985081;28;20710;-70
2023/01/02 10:53:21;;;;;;;10.82;5.50;;;;;;;14.85;76.31;101458.19;4983013;28;20038;-68
2023/01/02 10:55:49;;;;;;;4.30;1.92;;;;;;;14.85;76.09;101468.47;4975681;28;20053;-67
2023/01/02 10:58:16;;;;;;;5.03;1.88;;;;;;;14.94;76.07;101481.19;4987135;28;20115;-67
2023/01/02 11:00:43;;;;;;;8.10;4.25;;;;;;;14.83;76.39;101468.78;4968562;28;20053;-70
2023/01/02 11:03:11;;;;;;;6.10;3.35;;;;;;;14.84;76.29;101464.84;4975895;28;20066;-67
2023/01/02 11:05:56;;;;;;;13.05;7.65;;;;;;;15.01;75.69;101456.56;4997434;28;20215;-68
2023/01/02 11:08:44;;;;;;;9.95;4.15;;;;;;;15.19;74.67;101462.94;4986638;28;20050;-67
2023/01/02 11:11:16;;;;;;;17.65;11.52;;;;;;;15.16;74.24;101463.59;4999116;28;20046;-68
2023/01/02 11:13:50;;;;;;;6.40;1.90;;;;;;;14.88;74.85;101470.56;4981129;28;20050;-68
2023/01/02 11:16:23;;;;;;;8.20;4.75;;;;;;;14.65;75.77;101479.03;4974848;28;20042;-68
2023/01/02 11:18:57;;;;;;;10.52;6.78;;;;;;;13.90;77.73;101489.41;4959303;28;20525;-68
2023/01/02 11:21:32;;;;;;;9.00;5.70;;;;;;;14.61;77.66;101488.28;4989767;28;20525;-69
2023/01/02 11:24:05;;;;;;;20.75;13.63;;;;;;;14.40;75.80;101484.50;4992342;28;20541;-68
2023/01/02 11:26:33;;;;;;;11.55;7.22;;;;;;;14.55;77.03;101472.97;4958517;28;20047;-68
2023/01/02 11:29:07;;;;;;;8.93;5.30;;;;;;;14.36;76.98;101464.09;4973298;28;20051;-67
2023/01/02 11:31:35;;;;;;;9.45;4.68;;;;;;;14.86;76.46;101468.13;4986879;28;20055;-68
2023/01/02 11:34:18;;;;;;;9.80;5.05;;;;;;;15.13;74.50;101481.69;4974342;28;20063;-68
2023/01/02 11:36:47;;;;;;;8.15;3.50;;;;;;;15.31;73.30;101482.53;4985473;28;20053;-68
2023/01/02 11:39:21;;;;;;;9.23;2.40;;;;;;;15.37;72.71;101482.06;4962657;28;20058;-68
2023/01/02 11:45:16;;;;;;;14.20;7.10;;;;;;;15.28;73.36;101494.28;4960748;28;20128;-68
2023/01/02 11:47:47;;;;;;;15.85;9.18;;;;;;;15.50;71.66;101488.59;4962526;28;20051;-68
2023/01/02 11:50:26;;;;;;;24.15;12.27;;;;;;;15.65;71.44;101502.00;4977305;28;20055;-69
2023/01/02 11:52:57;;;;;;;40.05;19.00;;;;;;;15.67;70.66;101514.41;4975169;28;20434;-68